Time;durP1;ratioP1;P1;durP2;ratioP2;P2;SDS_P1;SDS_P2;PMS_P1;PMS_P2;Temp;Humidity;BMP_temperature;BMP_pressure;BME280_temperature;BME280_humidity;BME280_pressure;Samples;Min_cycle;Max_cycle;Signal;HPM_P1;HPM_P2
2021/11/02 00:00:23;;;;;;;;;;;21.00;60.40;;;;;;5053088;28;1285;-68
2021/11/02 00:02:48;;;;;;;;;;;21.00;60.50;;;;;;5052951;28;1212;-68
2021/11/02 00:05:14;;;;;;;;;;;21.00;60.40;;;;;;5053285;28;1894;-69
2021/11/02 00:07:40;;;;;;;;;;;21.00;60.50;;;;;;5053536;28;1298;-68
2021/11/02 00:10:06;;;;;;;;;;;21.00;60.50;;;;;;5053009;28;1311;-69
2021/11/02 00:12:32;;;;;;;;;;;21.00;60.50;;;;;;5034552;28;1561;-69
2021/11/02 00:14:58;;;;;;;;;;;21.00;60.50;;;;;;5053135;28;1372;-69
2021/11/02 00:17:26;;;;;;;;;;;21.00;60.60;;;;;;5035186;28;1338;-69
2021/11/02 00:19:56;;;;;;;;;;;20.90;60.50;;;;;;5053048;28;1312;-69
2021/11/02 00:22:23;;;;;;;;;;;21.00;60.70;;;;;;5053589;28;1349;-69
2021/11/02 00:27:29;;;;;;;;;;;21.00;60.70;;;;;;5052992;28;1311;-68
2021/11/02 00:29:54;;;;;;;;;;;20.90;60.60;;;;;;5052941;28;1408;-68
2021/11/02 00:32:20;;;;;;;;;;;20.90;60.60;;;;;;5052203;28;1307;-69
2021/11/02 00:34:45;;;;;;;;;;;20.90;60.70;;;;;;5052799;28;1163;-69
2021/11/02 00:37:11;;;;;;;;;;;20.90;60.70;;;;;;5052740;28;1268;-68
2021/11/02 00:39:36;;;;;;;;;;;20.90;60.70;;;;;;5052130;28;1352;-69
2021/11/02 00:42:01;;;;;;;;;;;20.90;60.70;;;;;;5052736;28;1279;-69
2021/11/02 00:44:27;;;;;;;;;;;20.90;60.70;;;;;;5052762;28;1902;-68
2021/11/02 00:46:55;;;;;;;;;;;20.90;60.70;;;;;;5052685;28;1308;-69
2021/11/02 00:49:22;;;;;;;;;;;20.90;60.80;;;;;;5034722;28;1300;-69
2021/11/02 00:51:48;;;;;;;;;;;20.90;60.80;;;;;;5052253;28;1350;-69
2021/11/02 00:54:13;;;;;;;;;;;20.90;60.80;;;;;;5034527;28;1309;-69
2021/11/02 00:56:39;;;;;;;;;;;20.90;60.80;;;;;;5034676;28;1368;-69
2021/11/02 00:59:05;;;;;;;;;;;20.90;60.80;;;;;;5052705;28;1340;-69
2021/11/02 01:01:30;;;;;;;;;;;20.90;60.90;;;;;;5052135;28;1292;-69
2021/11/02 01:03:56;;;;;;;;;;;20.90;60.90;;;;;;5052280;28;1906;-69
2021/11/02 01:06:22;;;;;;;;;;;20.90;60.90;;;;;;5052549;28;1351;-69
2021/11/02 01:08:47;;;;;;;;;;;20.90;60.90;;;;;;5052150;28;1234;-68
2021/11/02 01:11:13;;;;;;;;;;;20.80;60.80;;;;;;5052072;28;1299;-68
2021/11/02 01:13:38;;;;;;;;;;;20.90;60.90;;;;;;5052220;28;1339;-70
2021/11/02 01:16:04;;;;;;;;;;;20.80;60.90;;;;;;5052632;28;1224;-69
2021/11/02 01:18:29;;;;;;;;;;;20.80;60.90;;;;;;5052694;28;1346;-69
2021/11/02 01:20:55;;;;;;;;;;;20.80;60.90;;;;;;5052418;28;1455;-70
2021/11/02 01:23:20;;;;;;;;;;;20.80;60.90;;;;;;5051989;28;1315;-69
2021/11/02 01:25:45;;;;;;;;;;;20.80;61.00;;;;;;5052055;28;1902;-70
2021/11/02 01:28:11;;;;;;;;;;;20.80;61.00;;;;;;5052056;28;1392;-70
2021/11/02 01:30:36;;;;;;;;;;;20.80;61.00;;;;;;5035021;28;1325;-69
2021/11/02 01:33:02;;;;;;;;;;;20.80;61.00;;;;;;5037957;28;1344;-70
2021/11/02 01:35:28;;;;;;;;;;;20.80;61.10;;;;;;5038698;28;1365;-70
2021/11/02 01:37:54;;;;;;;;;;;20.80;61.00;;;;;;5055698;28;1242;-68
2021/11/02 01:40:20;;;;;;;;;;;20.80;61.00;;;;;;5055910;28;1259;-69
2021/11/02 01:42:46;;;;;;;;;;;20.80;61.10;;;;;;5055621;28;1283;-69
2021/11/02 01:45:12;;;;;;;;;;;20.80;61.10;;;;;;5038380;28;1950;-69
2021/11/02 01:47:39;;;;;;;;;;;20.80;61.10;;;;;;5055797;28;1260;-70
2021/11/02 01:50:05;;;;;;;;;;;20.80;61.10;;;;;;5038250;28;1326;-69
2021/11/02 01:52:32;;;;;;;;;;;20.80;61.10;;;;;;5055667;28;1200;-69
2021/11/02 01:54:58;;;;;;;;;;;20.80;61.10;;;;;;5038106;28;1289;-70
2021/11/02 01:57:23;;;;;;;;;;;20.80;61.10;;;;;;5055576;28;1344;-70
2021/11/02 01:59:49;;;;;;;;;;;20.70;61.10;;;;;;5037944;28;1277;-70
2021/11/02 02:02:21;;;;;;;;;;;20.70;61.10;;;;;;5055042;28;1339;-69
2021/11/02 02:05:00;;;;;;;;;;;20.80;61.20;;;;;;5055559;28;1961;-70
2021/11/02 02:07:29;;;;;;;;;;;20.70;61.10;;;;;;5037620;28;1308;-70
2021/11/02 02:10:01;;;;;;;;;;;20.70;61.10;;;;;;5037640;28;1544;-70
2021/11/02 02:12:29;;;;;;;;;;;20.80;61.20;;;;;;5037459;28;1315;-69
2021/11/02 02:15:01;;;;;;;;;;;20.70;61.10;;;;;;5037819;28;1332;-70
2021/11/02 02:17:31;;;;;;;;;;;20.70;61.10;;;;;;5037840;28;1096;-70
2021/11/02 02:19:58;;;;;;;;;;;20.70;61.20;;;;;;5037688;28;1275;-70
2021/11/02 02:22:24;;;;;;;;;;;20.70;61.20;;;;;;5037847;28;1341;-70
2021/11/02 02:24:50;;;;;;;;;;;20.70;61.20;;;;;;5056247;28;1932;-70
2021/11/02 02:27:20;;;;;;;;;;;20.70;61.20;;;;;;5055514;28;1303;-70
2021/11/02 02:29:46;;;;;;;;;;;20.70;61.20;;;;;;5037546;28;1366;-69
2021/11/02 02:32:16;;;;;;;;;;;20.70;61.20;;;;;;5036565;28;1287;-69
2021/11/02 02:34:41;;;;;;;;;;;20.70;61.30;;;;;;5037203;28;1394;-70
2021/11/02 02:37:07;;;;;;;;;;;20.70;61.30;;;;;;5037379;28;1323;-70
2021/11/02 02:39:34;;;;;;;;;;;20.70;61.20;;;;;;5054875;28;1332;-70
2021/11/02 02:41:59;;;;;;;;;;;20.70;61.30;;;;;;5036766;28;1277;-69
2021/11/02 02:44:25;;;;;;;;;;;20.70;61.30;;;;;;5037001;28;2030;-70
2021/11/02 02:46:50;;;;;;;;;;;20.70;61.30;;;;;;5054555;28;1298;-70
2021/11/02 02:49:16;;;;;;;;;;;20.70;61.30;;;;;;5037005;28;1337;-70
2021/11/02 02:51:42;;;;;;;;;;;20.70;61.40;;;;;;5054395;28;1336;-70
2021/11/02 02:54:08;;;;;;;;;;;20.70;61.40;;;;;;5036897;28;1332;-69
2021/11/02 02:56:34;;;;;;;;;;;20.70;61.40;;;;;;5054833;28;1225;-69
2021/11/02 02:59:02;;;;;;;;;;;20.70;61.40;;;;;;5036632;28;1293;-69
2021/11/02 03:01:27;;;;;;;;;;;20.70;61.40;;;;;;5054000;28;1348;-69
2021/11/02 03:03:57;;;;;;;;;;;20.70;61.40;;;;;;5036535;28;1192;-70
2021/11/02 03:06:25;;;;;;;;;;;20.70;61.40;;;;;;5036685;28;1289;-70
2021/11/02 03:08:51;;;;;;;;;;;20.70;61.40;;;;;;5036271;28;1387;-69
2021/11/02 03:11:16;;;;;;;;;;;20.70;61.40;;;;;;5036347;28;1387;-69
2021/11/02 03:13:44;;;;;;;;;;;20.60;61.40;;;;;;5054181;28;1342;-69
2021/11/02 03:16:10;;;;;;;;;;;20.70;61.50;;;;;;5036682;28;1186;-70
2021/11/02 03:48:18;;;;;;;;;;;20.70;61.60;;;;;;5035551;28;1279;-69
2021/11/02 03:51:09;;;;;;;;;;;20.70;61.60;;;;;;5034364;28;1200;-68
2021/11/02 03:59:13;;;;;;;;;;;20.60;61.50;;;;;;5035318;28;1273;-69
2021/11/02 04:22:27;;;;;;;;;;;20.60;61.60;;;;;;5050435;28;1906;-68
2021/11/02 04:24:08;;;;;;;;;;;20.60;61.60;;;;;;5037279;28;1264;-69
2021/11/02 04:35:05;;;;;;;;;;;20.60;61.70;;;;;;5051684;28;1196;-68
2021/11/02 04:43:07;;;;;;;;;;;20.60;61.70;;;;;;5051383;28;1351;-68
2021/11/02 05:07:17;;;;;;;;;;;20.60;61.80;;;;;;5053996;28;1320;-68
2021/11/02 05:10:12;;;;;;;;;;;20.60;61.80;;;;;;5053745;28;1101;-68
2021/11/02 05:13:17;;;;;;;;;;;20.60;61.80;;;;;;5042286;28;1405;-68
2021/11/02 05:48:35;;;;;;;;;;;20.60;61.80;;;;;;5055373;28;1257;-68
2021/11/02 05:54:09;;;;;;;;;;;20.60;61.70;;;;;;5055899;28;1138;-68
2021/11/02 05:56:49;;;;;;;;;;;20.60;61.60;;;;;;5033716;28;1370;-70
2021/11/02 05:59:36;;;;;;;;;;;20.60;61.50;;;;;;5057695;28;1320;-70
2021/11/02 06:02:23;;;;;;;;;;;20.70;61.50;;;;;;5054841;28;1343;-68
2021/11/02 06:29:52;;;;;;;;;;;20.80;60.90;;;;;;5039178;28;1306;-69
2021/11/02 06:32:24;;;;;;;;;;;20.80;60.90;;;;;;5036178;28;1330;-69
2021/11/02 06:40:12;;;;;;;;;;;20.80;60.70;;;;;;5036897;28;1425;-71
2021/11/02 06:48:40;;;;;;;;;;;20.90;60.80;;;;;;4999880;28;1347;-68
2021/11/02 06:54:18;;;;;;;;;;;20.90;60.70;;;;;;5042720;28;1320;-68
2021/11/02 07:17:08;;;;;;;;;;;20.90;60.50;;;;;;5039108;28;1246;-70
2021/11/02 07:19:38;;;;;;;;;;;20.90;60.50;;;;;;5040029;28;1352;-72
2021/11/02 07:22:40;;;;;;;;;;;20.90;60.50;;;;;;5037609;28;1388;-72
2021/11/02 07:28:06;;;;;;;;;;;20.90;60.40;;;;;;5045029;28;1288;-71
2021/11/02 08:47:30;;;;;;;;;;;22.20;57.80;;;;;;5053273;28;1271;-69
2021/11/02 08:49:56;;;;;;;;;;;22.30;57.80;;;;;;5052718;28;1280;-70
2021/11/02 08:52:22;;;;;;;;;;;22.30;57.80;;;;;;5033657;28;1929;-70
2021/11/02 08:54:48;;;;;;;;;;;22.30;57.80;;;;;;5029246;28;1145;-70
2021/11/02 08:57:14;;;;;;;;;;;22.30;57.80;;;;;;5052272;28;1330;-69
2021/11/02 08:59:39;;;;;;;;;;;22.30;57.70;;;;;;5034626;28;1370;-69
2021/11/02 09:02:05;;;;;;;;;;;22.30;57.70;;;;;;5034069;28;1342;-70
2021/11/02 09:04:31;;;;;;;;;;;22.30;57.70;;;;;;5052463;28;1969;-70
2021/11/02 09:06:57;;;;;;;;;;;22.30;57.60;;;;;;5034576;28;1320;-70
2021/11/02 09:09:23;;;;;;;;;;;22.30;57.60;;;;;;5052432;28;1163;-70
2021/11/02 09:11:48;;;;;;;;;;;22.30;57.60;;;;;;5033981;28;1290;-70
2021/11/02 09:14:13;;;;;;;;;;;22.40;57.60;;;;;;5034346;28;1291;-69
2021/11/02 09:16:39;;;;;;;;;;;22.30;57.60;;;;;;5052470;28;1288;-70
2021/11/02 09:19:04;;;;;;;;;;;22.40;57.60;;;;;;5034485;28;1349;-70
2021/11/02 09:21:30;;;;;;;;;;;22.40;57.60;;;;;;5034131;28;1364;-70
2021/11/02 09:23:55;;;;;;;;;;;22.30;57.60;;;;;;5034569;28;1284;-70
2021/11/02 09:26:21;;;;;;;;;;;22.30;57.60;;;;;;5034216;28;1965;-70
2021/11/02 09:28:47;;;;;;;;;;;22.30;57.60;;;;;;5051997;28;1526;-69
2021/11/02 09:31:13;;;;;;;;;;;22.30;57.60;;;;;;5034138;28;1274;-70
2021/11/02 09:33:38;;;;;;;;;;;22.30;57.70;;;;;;5052125;28;1360;-70
2021/11/02 09:36:04;;;;;;;;;;;22.30;57.70;;;;;;5052280;28;1358;-70
2021/11/02 09:38:32;;;;;;;;;;;22.30;57.80;;;;;;5030183;28;1836;-69
2021/11/02 09:41:09;;;;;;;;;;;22.30;57.80;;;;;;5034023;28;1635;-69
2021/11/02 09:44:09;;;;;;;;;;;22.30;57.90;;;;;;5047843;28;1361;-70
2021/11/02 09:46:42;;;;;;;;;;;22.20;57.90;;;;;;5032569;28;1902;-69
2021/11/02 09:49:26;;;;;;;;;;;22.20;57.90;;;;;;5014346;28;1640;-69
2021/11/02 09:52:02;;;;;;;;;;;22.20;58.00;;;;;;5052008;28;1503;-69
2021/11/02 09:54:35;;;;;;;;;;;22.20;58.00;;;;;;5043017;28;1152;-70
2021/11/02 09:57:06;;;;;;;;;;;22.20;58.00;;;;;;5038208;28;1413;-69
2021/11/02 09:59:39;;;;;;;;;;;22.20;58.00;;;;;;5037917;28;1787;-69
2021/11/02 10:02:12;;;;;;;;;;;22.20;58.00;;;;;;5037847;28;1415;-69
2021/11/02 10:04:39;;;;;;;;;;;22.20;58.00;;;;;;5054701;28;1965;-69
2021/11/02 10:07:15;;;;;;;;;;;22.20;58.00;;;;;;5053376;28;1453;-69
2021/11/02 10:09:44;;;;;;;;;;;22.30;58.00;;;;;;5037558;28;1674;-69
2021/11/02 10:12:19;;;;;;;;;;;22.30;58.00;;;;;;5037013;28;1685;-69
2021/11/02 10:15:06;;;;;;;;;;;22.30;57.90;;;;;;5037298;28;1588;-69
2021/11/02 10:17:33;;;;;;;;;;;22.30;57.90;;;;;;5056007;28;1232;-68
2021/11/02 10:20:05;;;;;;;;;;;22.30;57.90;;;;;;5056630;28;1528;-70
2021/11/02 10:22:35;;;;;;;;;;;22.30;57.90;;;;;;5054350;28;1547;-69
2021/11/02 10:25:00;;;;;;;;;;;22.30;57.90;;;;;;5054447;28;1917;-69
2021/11/02 10:27:30;;;;;;;;;;;22.30;57.90;;;;;;5054772;28;1682;-70
2021/11/02 10:29:57;;;;;;;;;;;22.30;57.90;;;;;;5037194;28;1738;-69
2021/11/02 10:32:26;;;;;;;;;;;22.30;57.80;;;;;;5054276;28;1597;-70
2021/11/02 10:35:03;;;;;;;;;;;22.30;57.90;;;;;;5036674;28;1450;-69
2021/11/02 10:37:31;;;;;;;;;;;22.30;57.90;;;;;;5054462;28;1530;-69
2021/11/02 10:40:14;;;;;;;;;;;22.30;57.90;;;;;;5054253;28;1143;-69
2021/11/02 10:42:45;;;;;;;;;;;22.30;57.90;;;;;;5054023;28;1627;-69
2021/11/02 10:45:11;;;;;;;;;;;22.30;57.90;;;;;;5036348;28;1969;-69
2021/11/02 10:47:43;;;;;;;;;;;22.30;57.90;;;;;;5036607;28;1616;-69
2021/11/02 10:50:09;;;;;;;;;;;22.30;57.90;;;;;;5053589;28;1662;-69
2021/11/02 10:52:36;;;;;;;;;;;22.30;57.90;;;;;;5036180;28;1731;-69
2021/11/02 10:55:06;;;;;;;;;;;22.30;58.00;;;;;;5036624;28;1391;-69
2021/11/02 10:57:36;;;;;;;;;;;22.30;58.00;;;;;;5036431;28;1559;-69
2021/11/02 11:00:04;;;;;;;;;;;22.30;58.00;;;;;;5036316;28;1745;-69
2021/11/02 11:02:29;;;;;;;;;;;22.30;58.00;;;;;;5035623;28;1725;-69
2021/11/02 11:04:55;;;;;;;;;;;22.30;58.10;;;;;;5035092;28;1973;-69
2021/11/02 11:07:21;;;;;;;;;;;22.30;58.10;;;;;;5036198;28;1676;-69
2021/11/02 11:09:46;;;;;;;;;;;22.30;58.10;;;;;;5036038;28;1603;-69
2021/11/02 11:12:13;;;;;;;;;;;22.20;58.00;;;;;;5035798;28;1672;-69
2021/11/02 11:14:38;;;;;;;;;;;22.20;58.10;;;;;;5036328;28;1658;-69
2021/11/02 11:17:04;;;;;;;;;;;22.20;58.10;;;;;;5035917;28;1655;-69
2021/11/02 11:19:34;;;;;;;;;;;22.20;58.10;;;;;;5035775;28;1672;-68
2021/11/02 11:21:59;;;;;;;;;;;22.20;58.10;;;;;;5053467;28;1523;-69
2021/11/02 11:24:32;;;;;;;;;;;22.20;58.20;;;;;;5035501;28;1906;-69
2021/11/02 11:26:58;;;;;;;;;;;22.20;58.20;;;;;;5036593;28;1401;-69
2021/11/02 11:29:24;;;;;;;;;;;22.20;58.20;;;;;;5032420;28;2291;-69
2021/11/02 11:31:53;;;;;;;;;;;22.20;58.20;;;;;;5018238;28;1573;-69
2021/11/02 11:34:20;;;;;;;;;;;22.20;58.20;;;;;;5053202;28;1397;-69
2021/11/02 11:36:47;;;;;;;;;;;22.20;58.20;;;;;;5032900;28;1875;-68
2021/11/02 11:39:13;;;;;;;;;;;22.20;58.80;;;;;;5051623;28;1228;-69
2021/11/02 11:41:38;;;;;;;;;;;22.20;58.30;;;;;;5035433;28;2150;-70
2021/11/02 11:44:04;;;;;;;;;;;22.20;58.30;;;;;;5035656;28;1268;-69
2021/11/02 11:46:29;;;;;;;;;;;22.20;58.30;;;;;;5053374;28;1968;-70
2021/11/02 11:48:55;;;;;;;;;;;22.20;58.30;;;;;;5035612;28;1224;-68
2021/11/02 11:51:21;;;;;;;;;;;22.20;58.30;;;;;;5033242;28;1331;-69
2021/11/02 11:53:48;;;;;;;;;;;22.20;58.30;;;;;;5033967;28;1268;-68
2021/11/02 11:56:14;;;;;;;;;;;22.20;58.30;;;;;;5035720;28;1260;-69
2021/11/02 11:58:51;;;;;;;;;;;22.20;58.30;;;;;;5053534;28;1272;-69
2021/11/02 12:01:31;;;;;;;;;;;22.20;58.40;;;;;;5051009;28;1233;-69
2021/11/02 12:04:03;;;;;;;;;;;22.20;58.40;;;;;;5032977;28;1319;-69
2021/11/02 12:06:29;;;;;;;;;;;22.20;58.40;;;;;;5052930;28;1906;-69
2021/11/02 12:08:57;;;;;;;;;;;22.20;58.40;;;;;;5052702;28;1108;-68
2021/11/02 12:11:23;;;;;;;;;;;22.20;58.40;;;;;;5052511;28;1213;-69
2021/11/02 12:13:49;;;;;;;;;;;22.20;58.40;;;;;;5018400;28;1255;-69
2021/11/02 12:16:24;;;;;;;;;;;22.20;58.40;;;;;;5035141;28;1804;-68
2021/11/02 12:19:06;;;;;;;;;;;22.20;58.40;;;;;;5032782;28;1974;-69
2021/11/02 12:21:32;;;;;;;;;;;22.20;58.40;;;;;;5052474;28;1286;-69
2021/11/02 12:24:01;;;;;;;;;;;22.20;58.40;;;;;;5031494;28;1122;-68
2021/11/02 12:26:43;;;;;;;;;;;22.20;58.40;;;;;;5035079;28;1958;-68
2021/11/02 12:29:27;;;;;;;;;;;22.20;58.40;;;;;;5035119;28;1341;-68
2021/11/02 12:31:54;;;;;;;;;;;22.20;58.40;;;;;;5052419;28;1245;-68
2021/11/02 12:34:19;;;;;;;;;;;22.20;58.40;;;;;;5044306;28;2126;-68
2021/11/02 12:36:49;;;;;;;;;;;22.20;58.40;;;;;;5050989;28;1840;-68
2021/11/02 12:39:17;;;;;;;;;;;22.20;58.40;;;;;;5051570;28;1224;-68
2021/11/02 12:41:56;;;;;;;;;;;22.20;58.40;;;;;;5034927;28;1358;-69
2021/11/02 12:44:23;;;;;;;;;;;22.20;58.40;;;;;;5034952;28;1947;-68
2021/11/02 12:46:49;;;;;;;;;;;22.20;58.40;;;;;;5050259;28;2174;-68
2021/11/02 12:49:18;;;;;;;;;;;22.20;58.40;;;;;;5034850;28;1336;-68
2021/11/02 12:51:48;;;;;;;;;;;22.20;58.40;;;;;;5052564;28;1284;-68
2021/11/02 12:54:16;;;;;;;;;;;22.20;58.40;;;;;;5035011;28;1394;-68
2021/11/02 12:56:42;;;;;;;;;;;22.20;59.00;;;;;;5052848;28;1264;-68
2021/11/02 12:59:21;;;;;;;;;;;22.20;58.40;;;;;;5033554;28;1760;-68
2021/11/02 13:01:47;;;;;;;;;;;22.20;58.30;;;;;;5032575;28;2394;-69
2021/11/02 13:04:12;;;;;;;;;;;22.20;58.30;;;;;;5030904;28;1832;-69
2021/11/02 13:06:38;;;;;;;;;;;22.30;58.30;;;;;;5051597;28;1926;-69
2021/11/02 13:09:03;;;;;;;;;;;22.30;58.30;;;;;;5052690;28;1082;-69
2021/11/02 13:11:29;;;;;;;;;;;22.30;58.30;;;;;;5031820;28;1341;-68
2021/11/02 13:13:56;;;;;;;;;;;22.30;58.30;;;;;;5034355;28;1166;-69
2021/11/02 13:16:22;;;;;;;;;;;22.20;58.30;;;;;;5031924;28;1959;-69
2021/11/02 13:18:48;;;;;;;;;;;22.20;58.30;;;;;;5034576;28;1268;-68
2021/11/02 13:21:21;;;;;;;;;;;22.20;58.30;;;;;;5051775;28;1315;-68
2021/11/02 13:23:52;;;;;;;;;;;22.20;58.40;;;;;;5052369;28;1357;-70
2021/11/02 13:26:20;;;;;;;;;;;22.20;58.40;;;;;;5051821;28;1914;-69
2021/11/02 13:28:46;;;;;;;;;;;22.20;58.40;;;;;;5036390;28;1587;-69
2021/11/02 13:31:25;;;;;;;;;;;22.20;58.40;;;;;;5036997;28;2008;-70
2021/11/02 13:33:54;;;;;;;;;;;22.20;58.40;;;;;;5055322;28;1497;-70
2021/11/02 13:36:19;;;;;;;;;;;22.20;58.50;;;;;;5038365;28;1318;-70
2021/11/02 13:38:45;;;;;;;;;;;22.20;58.50;;;;;;5056251;28;1355;-70
2021/11/02 13:41:20;;;;;;;;;;;22.10;58.50;;;;;;5055806;28;1074;-69
2021/11/02 13:43:49;;;;;;;;;;;22.10;58.50;;;;;;5056265;28;1264;-70
2021/11/02 13:46:16;;;;;;;;;;;22.10;58.50;;;;;;5055877;28;1969;-69
2021/11/02 13:48:41;;;;;;;;;;;22.10;58.60;;;;;;5038325;28;1131;-70
2021/11/02 13:51:08;;;;;;;;;;;22.10;58.60;;;;;;5055614;28;1139;-69
2021/11/02 13:53:36;;;;;;;;;;;22.10;58.60;;;;;;5037650;28;1338;-69
2021/11/02 13:56:03;;;;;;;;;;;22.10;58.60;;;;;;5038296;28;1343;-69
2021/11/02 13:58:28;;;;;;;;;;;22.10;58.70;;;;;;5037642;28;1287;-69
2021/11/02 14:00:54;;;;;;;;;;;22.10;58.70;;;;;;5037352;28;1537;-69
2021/11/02 14:03:21;;;;;;;;;;;22.10;58.70;;;;;;5055096;28;1303;-69
2021/11/02 14:05:46;;;;;;;;;;;22.10;58.70;;;;;;5034796;28;1965;-68
2021/11/02 14:08:12;;;;;;;;;;;22.10;58.80;;;;;;5035704;28;1189;-69
2021/11/02 14:10:37;;;;;;;;;;;22.00;58.70;;;;;;5037421;28;1308;-69
2021/11/02 14:13:03;;;;;;;;;;;22.00;58.80;;;;;;5037115;28;1409;-68
2021/11/02 14:15:29;;;;;;;;;;;22.00;58.80;;;;;;5038197;28;1299;-67
2021/11/02 14:17:57;;;;;;;;;;;22.00;58.80;;;;;;5019133;28;1284;-68
2021/11/02 14:20:35;;;;;;;;;;;22.00;58.80;;;;;;5054894;28;1433;-69
2021/11/02 14:23:00;;;;;;;;;;;22.00;58.80;;;;;;5054642;28;1385;-70
2021/11/02 14:25:33;;;;;;;;;;;22.00;58.80;;;;;;5034954;28;1906;-69
2021/11/02 14:27:58;;;;;;;;;;;22.00;58.90;;;;;;5036990;28;1264;-69
2021/11/02 14:30:32;;;;;;;;;;;22.00;58.90;;;;;;5054875;28;1232;-69
2021/11/02 14:32:58;;;;;;;;;;;22.00;58.90;;;;;;5054371;28;1324;-70
2021/11/02 14:35:37;;;;;;;;;;;22.00;58.90;;;;;;5054915;28;1343;-70
2021/11/02 14:38:04;;;;;;;;;;;21.90;58.90;;;;;;5054525;28;1432;-70
2021/11/02 14:40:33;;;;;;;;;;;21.90;58.90;;;;;;5037037;28;1401;-70
2021/11/02 14:42:59;;;;;;;;;;;21.90;58.90;;;;;;5036848;28;1294;-69
2021/11/02 14:45:39;;;;;;;;;;;21.90;59.00;;;;;;5036802;28;1898;-70
2021/11/02 14:48:24;;;;;;;;;;;21.90;59.00;;;;;;5037310;28;1155;-74
2021/11/02 14:50:50;;;;;;;;;;;21.90;59.00;;;;;;5054518;28;1157;-74
2021/11/02 14:53:24;;;;;;;;;;;21.90;58.00;;;;;;5020332;28;1285;-74
2021/11/02 14:55:58;;;;;;;;;;;21.80;57.30;;;;;;5054570;28;1185;-69
2021/11/02 14:58:38;;;;;;;;;;;21.80;57.30;;;;;;5054903;28;1593;-70
2021/11/02 15:01:14;;;;;;;;;;;21.80;57.30;;;;;;5054584;28;1122;-70
2021/11/02 15:03:40;;;;;;;;;;;21.80;57.30;;;;;;5055080;28;1736;-70
2021/11/02 15:06:06;;;;;;;;;;;21.80;57.50;;;;;;5054841;28;1969;-70
2021/11/02 15:08:38;;;;;;;;;;;21.80;57.60;;;;;;5036808;28;1657;-70
2021/11/02 15:11:10;;;;;;;;;;;21.80;57.70;;;;;;5037041;28;1373;-70
2021/11/02 15:13:37;;;;;;;;;;;21.70;57.70;;;;;;5036786;28;1732;-70
2021/11/02 15:16:02;;;;;;;;;;;21.70;57.80;;;;;;5036697;28;1621;-70
2021/11/02 15:18:38;;;;;;;;;;;21.70;57.80;;;;;;5016935;28;1685;-70
2021/11/02 15:21:03;;;;;;;;;;;21.70;57.90;;;;;;5047161;28;1334;-70
2021/11/02 15:23:36;;;;;;;;;;;21.70;57.90;;;;;;5036503;28;1520;-70
2021/11/02 15:26:01;;;;;;;;;;;21.70;58.00;;;;;;5036490;28;1963;-69
2021/11/02 15:28:26;;;;;;;;;;;21.70;58.10;;;;;;5027079;28;1187;-69
2021/11/02 15:31:01;;;;;;;;;;;21.70;58.70;;;;;;5051941;28;1666;-69
2021/11/02 15:33:30;;;;;;;;;;;21.70;58.20;;;;;;5036255;28;1682;-69
2021/11/02 15:36:06;;;;;;;;;;;21.70;58.20;;;;;;5036445;28;1144;-69
2021/11/02 15:38:31;;;;;;;;;;;21.70;58.30;;;;;;5054257;28;1635;-69
2021/11/02 15:40:57;;;;;;;;;;;21.70;58.30;;;;;;5053779;28;1523;-69
2021/11/02 15:43:22;;;;;;;;;;;21.70;58.40;;;;;;5036249;28;1648;-69
2021/11/02 15:45:48;;;;;;;;;;;21.70;58.40;;;;;;5053841;28;1902;-69
2021/11/02 15:48:14;;;;;;;;;;;21.70;58.40;;;;;;5054168;28;1641;-69
2021/11/02 15:50:40;;;;;;;;;;;21.60;58.40;;;;;;5035293;28;1334;-69
2021/11/02 15:53:08;;;;;;;;;;;21.60;58.50;;;;;;5035721;28;1644;-69
2021/11/02 15:55:34;;;;;;;;;;;21.70;58.60;;;;;;5036165;28;1491;-69
2021/11/02 15:58:02;;;;;;;;;;;21.60;58.50;;;;;;5035799;28;1358;-69
2021/11/02 16:00:28;;;;;;;;;;;21.70;58.60;;;;;;5053557;28;1523;-69
2021/11/02 16:02:53;;;;;;;;;;;21.60;58.60;;;;;;5019276;28;1731;-70
2021/11/02 16:05:19;;;;;;;;;;;21.60;58.70;;;;;;5035671;28;1962;-69
2021/11/02 16:07:45;;;;;;;;;;;21.60;58.70;;;;;;5053604;28;1662;-69
2021/11/02 16:10:11;;;;;;;;;;;21.60;58.70;;;;;;5053488;28;1450;-69
2021/11/02 16:12:39;;;;;;;;;;;21.60;58.80;;;;;;5035563;28;1423;-69
2021/11/02 16:15:15;;;;;;;;;;;21.60;59.00;;;;;;5053170;28;1643;-69
2021/11/02 16:17:48;;;;;;;;;;;21.60;59.30;;;;;;5035366;28;1581;-69
2021/11/02 16:20:16;;;;;;;;;;;21.60;59.30;;;;;;5034247;28;1229;-69
2021/11/02 16:22:45;;;;;;;;;;;21.60;59.20;;;;;;5033888;28;1433;-68
2021/11/02 16:25:11;;;;;;;;;;;21.60;59.20;;;;;;5051310;28;1902;-69
2021/11/02 16:27:37;;;;;;;;;;;21.60;59.20;;;;;;5029101;28;1217;-69
2021/11/02 16:30:18;;;;;;;;;;;21.60;59.20;;;;;;5052416;28;1113;-68
2021/11/02 16:32:44;;;;;;;;;;;21.60;59.20;;;;;;5028840;28;1307;-69
2021/11/02 16:35:10;;;;;;;;;;;21.60;59.60;;;;;;5035689;28;1393;-68
2021/11/02 16:37:36;;;;;;;;;;;21.60;59.70;;;;;;5053008;28;973;-69
2021/11/02 16:40:17;;;;;;;;;;;21.60;59.70;;;;;;5052118;28;1363;-68
2021/11/02 16:42:56;;;;;;;;;;;21.60;59.60;;;;;;5051605;28;1738;-69
2021/11/02 16:45:22;;;;;;;;;;;21.60;59.60;;;;;;5033775;28;1903;-68
2021/11/02 16:48:00;;;;;;;;;;;21.60;59.60;;;;;;5034520;28;1705;-68
2021/11/02 16:50:27;;;;;;;;;;;21.60;59.60;;;;;;5032647;28;2218;-68
2021/11/02 16:52:52;;;;;;;;;;;21.60;59.70;;;;;;5052279;28;1657;-68
2021/11/02 16:55:18;;;;;;;;;;;21.60;59.60;;;;;;5032786;28;1566;-69
2021/11/02 16:57:44;;;;;;;;;;;21.60;59.60;;;;;;5015209;28;1737;-69
2021/11/02 17:00:11;;;;;;;;;;;21.60;59.70;;;;;;5029306;28;1665;-69
2021/11/02 17:02:40;;;;;;;;;;;21.50;59.60;;;;;;5052421;28;1411;-69
2021/11/02 17:05:18;;;;;;;;;;;21.60;59.60;;;;;;5052648;28;2034;-70
2021/11/02 17:08:02;;;;;;;;;;;21.50;59.60;;;;;;5052319;28;1128;-68
2021/11/02 17:10:28;;;;;;;;;;;21.50;59.60;;;;;;5052503;28;1718;-69
2021/11/02 17:13:12;;;;;;;;;;;21.50;59.60;;;;;;5051058;28;1289;-69
2021/11/02 17:15:38;;;;;;;;;;;21.50;59.80;;;;;;5050598;28;1645;-68
2021/11/02 17:18:04;;;;;;;;;;;21.50;59.80;;;;;;5051839;28;1385;-69
2021/11/02 17:20:30;;;;;;;;;;;21.50;59.70;;;;;;5031548;28;1343;-68
2021/11/02 17:22:55;;;;;;;;;;;21.50;59.70;;;;;;5051692;28;1295;-68
2021/11/02 17:25:21;;;;;;;;;;;21.50;59.70;;;;;;5034664;28;1975;-68
2021/11/02 17:27:47;;;;;;;;;;;21.50;60.40;;;;;;5034650;28;1355;-69
2021/11/02 17:30:22;;;;;;;;;;;21.50;59.70;;;;;;5034144;28;1474;-69
2021/11/02 17:32:48;;;;;;;;;;;21.50;59.80;;;;;;5034200;28;1377;-69
2021/11/02 17:35:14;;;;;;;;;;;21.50;59.80;;;;;;5052530;28;1290;-69
2021/11/02 17:37:40;;;;;;;;;;;21.50;59.80;;;;;;5052136;28;1316;-68
2021/11/02 17:40:06;;;;;;;;;;;21.50;59.80;;;;;;5052322;28;1326;-69
2021/11/02 17:42:31;;;;;;;;;;;21.50;59.80;;;;;;5033786;28;1377;-69
2021/11/02 17:44:57;;;;;;;;;;;21.50;59.80;;;;;;5051914;28;1968;-69
2021/11/02 17:47:22;;;;;;;;;;;21.50;59.80;;;;;;5052225;28;1334;-69
2021/11/02 17:49:49;;;;;;;;;;;21.50;59.80;;;;;;5052311;28;1411;-68
2021/11/02 17:52:14;;;;;;;;;;;21.50;59.80;;;;;;5051406;28;1316;-68
2021/11/02 17:54:40;;;;;;;;;;;21.50;59.80;;;;;;5034242;28;1258;-69
2021/11/02 17:57:06;;;;;;;;;;;21.50;59.90;;;;;;5051833;28;1283;-69
2021/11/02 17:59:32;;;;;;;;;;;21.50;59.90;;;;;;5051878;28;1249;-68
2021/11/02 18:01:57;;;;;;;;;;;21.50;59.80;;;;;;5033694;28;1542;-69
2021/11/02 18:04:23;;;;;;;;;;;21.50;59.90;;;;;;5034452;28;888;-69
2021/11/02 18:06:48;;;;;;;;;;;21.50;59.90;;;;;;5033951;28;1907;-69
2021/11/02 18:09:14;;;;;;;;;;;21.50;59.90;;;;;;5052129;28;1139;-69
2021/11/02 18:11:40;;;;;;;;;;;21.40;59.90;;;;;;5033892;28;1344;-69
2021/11/02 18:14:05;;;;;;;;;;;21.40;59.90;;;;;;5055349;28;1376;-69
2021/11/02 18:16:31;;;;;;;;;;;21.40;59.90;;;;;;5038393;28;1367;-69
2021/11/02 18:18:58;;;;;;;;;;;21.40;59.90;;;;;;5037792;28;989;-69
2021/11/02 18:21:23;;;;;;;;;;;21.40;59.90;;;;;;5037158;28;1269;-69
2021/11/02 18:23:49;;;;;;;;;;;21.40;59.90;;;;;;5037676;28;1303;-69
2021/11/02 18:26:15;;;;;;;;;;;21.40;59.90;;;;;;5048692;28;1902;-69
2021/11/02 18:28:40;;;;;;;;;;;21.40;59.90;;;;;;5049837;28;2013;-69
2021/11/02 18:31:06;;;;;;;;;;;21.40;59.90;;;;;;5046374;28;1422;-68
2021/11/02 18:33:32;;;;;;;;;;;21.40;59.90;;;;;;5045855;28;1459;-69
2021/11/02 18:35:58;;;;;;;;;;;21.40;59.90;;;;;;5043204;28;1622;-68
2021/11/02 18:38:25;;;;;;;;;;;21.40;59.90;;;;;;5037242;28;1347;-68
2021/11/02 18:40:50;;;;;;;;;;;21.40;60.00;;;;;;5042649;28;1359;-67
2021/11/02 18:43:16;;;;;;;;;;;21.40;59.90;;;;;;5045437;28;1440;-68
2021/11/02 18:45:42;;;;;;;;;;;21.40;59.90;;;;;;5048802;28;1902;-69
2021/11/02 18:48:07;;;;;;;;;;;21.40;60.00;;;;;;5045618;28;1298;-69
2021/11/02 18:50:33;;;;;;;;;;;21.40;59.90;;;;;;5054742;28;1311;-69
2021/11/02 18:53:00;;;;;;;;;;;21.40;60.00;;;;;;5054389;28;1306;-69
2021/11/02 18:55:25;;;;;;;;;;;21.40;60.00;;;;;;5054586;28;1365;-69
2021/11/02 18:57:56;;;;;;;;;;;21.40;60.00;;;;;;5037951;28;1217;-69
2021/11/02 19:00:21;;;;;;;;;;;21.40;60.00;;;;;;5044771;28;1580;-69
2021/11/02 19:02:47;;;;;;;;;;;21.30;59.90;;;;;;5045279;28;1441;-69
2021/11/02 19:05:13;;;;;;;;;;;21.40;60.00;;;;;;5054388;28;1938;-69
2021/11/02 19:07:39;;;;;;;;;;;21.40;60.00;;;;;;5045680;28;1477;-69